Latest Weather Observations for Renmark Airport

IDS60801

Issued at 12:35 pm CST Thursday 28 August 2014 (issued every 30 minutes, with the page automatically refreshed every 10 minutes)

About weather observations | Map of weather stations | Latest weather observations for SA | Other Formats
Station Details ID: 024048 Name: RENMARK AERO Lat: -34.20 Lon: 140.68 Height: 31.5 m
Data from the previous 72 hours. | See also: Recent months at Renmark Airport
Date/Time
CST
Temp
°C
App
Temp
°C
Dew
Point
Rel
Hum
%
Delta-T
°C
Wind Press
QNH
hPa
Press
MSL
hPa
Rain
since 9 am
mm
Dir
 
Spd
km/h
Gust
km/h
Spd
kts
Gust
kts
28/12:30pm 21.7 19.3 4.3 32 8.4 E 6 9 3 5 1028.1 1028.1 0.0
28/12:00pm 22.0 19.8 5.4 34 8.2 E 6 13 3 7 1028.6 1028.6 0.0
28/11:30am 21.4 19.3 5.7 36 7.8 NE 6 17 3 9 1028.9 1028.9 0.0
28/11:00am 20.8 18.2 6.0 38 7.4 NE 9 15 5 8 1029.1 1029.1 0.0
28/10:30am 20.4 18.6 7.1 42 6.7 E 6 9 3 5 1029.5 1029.5 0.0
28/10:00am 18.8 16.7 6.6 45 6.1 NE 7 11 4 6 1029.7 1029.7 0.0
28/09:30am 17.4 15.9 6.9 50 5.2 ENE 4 7 2 4 1029.7 1029.7 0.0
28/09:00am 15.5 13.6 6.5 55 4.4 ENE 6 7 3 4 1029.8 1029.8 0.0
28/08:30am 13.6 12.7 6.0 60 3.6 CALM 0 0 0 0 1029.6 1029.6 0.0
28/08:00am 10.7 9.7 5.7 71 2.3 CALM 0 0 0 0 1029.3 1029.3 0.0
28/07:30am 5.9 4.8 5.0 94 0.4 CALM 0 0 0 0 1029.0 1029.0 0.0
28/07:00am 3.0 1.3 1.7 91 0.5 CALM 0 0 0 0 1028.9 1028.9 0.0
28/06:30am 2.5 0.7 1.0 90 0.6 CALM 0 0 0 0 1028.7 1028.7 0.0
28/06:00am 2.5 0.7 0.9 89 0.6 W 0 0 0 0 1028.3 1028.3 0.0
28/05:30am 3.0 1.2 1.4 89 0.6 CALM 0 0 0 0 1027.9 1027.9 0.0
28/05:00am 3.1 1.3 1.3 88 0.7 CALM 0 0 0 0 1027.6 1027.6 0.0
28/04:30am 3.3 1.5 1.3 87 0.8 CALM 0 0 0 0 1027.4 1027.4 0.0
28/04:00am 3.8 2.2 2.2 89 0.6 CALM 0 0 0 0 1027.4 1027.4 0.0
28/03:30am 3.9 1.8 1.6 85 0.9 W 2 6 1 3 1027.3 1027.3 0.0
28/03:00am 4.3 1.9 2.2 86 0.8 SW 4 6 2 3 1027.5 1027.5 0.0
28/02:30am 4.2 1.4 1.9 85 0.9 S 6 9 3 5 1027.5 1027.5 0.0
28/02:00am 5.1 3.5 2.5 83 1.1 CALM 0 0 0 0 1027.5 1027.5 0.0
28/01:30am 5.4 3.8 2.6 82 1.1 CALM 0 0 0 0 1027.7 1027.7 0.0
28/01:00am 6.0 3.3 2.8 80 1.3 W 6 7 3 4 1027.6 1027.6 0.0
28/12:30am 6.3 4.5 3.5 82 1.2 W 2 7 1 4 1027.8 1027.8 0.0
28/12:00am 6.9 5.5 3.5 79 1.4 WSW 0 0 0 0 1027.7 1027.7 0.0
 
Date/Time
CST
Temp
°C
App
Temp
°C
Dew
Point
Rel
Hum
%
Delta-T
°C
Wind Press
QNH
hPa
Press
MSL
hPa
Rain
since 9 am
mm
Dir
 
Spd
km/h
Gust
km/h
Spd
kts
Gust
kts
27/11:30pm 7.6 6.3 4.0 78 1.5 CALM 0 0 0 0 1027.8 1027.8 0.0
27/11:00pm 9.6 8.4 4.8 72 2.2 CALM 0 0 0 0 1027.9 1027.9 0.0
27/10:30pm 9.0 6.4 4.2 72 2.1 SSE 7 11 4 6 1027.9 1027.9 0.0
27/10:00pm 8.3 7.0 3.9 74 1.9 CALM 0 0 0 0 1027.8 1027.8 0.0
27/09:30pm 8.8 7.4 3.8 71 2.2 CALM 0 0 0 0 1027.7 1027.7 0.0
27/09:00pm 9.4 8.1 4.2 70 2.3 CALM 0 0 0 0 1027.4 1027.4 0.0
27/08:30pm 10.3 9.1 4.5 67 2.6 CALM 0 0 0 0 1027.2 1027.2 0.0
27/08:00pm 11.0 9.8 4.7 65 2.8 CALM 0 0 0 0 1027.0 1027.0 0.0
27/07:30pm 12.0 10.9 5.0 62 3.2 CALM 0 0 0 0 1026.7 1026.7 0.0
27/07:00pm 14.8 12.5 5.9 55 4.3 ENE 7 11 4 6 1026.3 1026.3 0.0
27/06:30pm 15.9 14.1 5.5 50 4.9 ENE 4 6 2 3 1026.0 1026.0 0.0
27/06:00pm 18.1 15.7 5.3 43 6.2 ENE 7 7 4 4 1025.9 1025.9 0.0
27/05:30pm 19.3 16.2 5.4 40 6.8 ESE 11 15 6 8 1025.7 1025.7 0.0
27/05:00pm 21.0 17.0 5.0 35 7.9 E 15 20 8 11 1025.5 1025.5 0.0
27/04:30pm 21.8 17.4 4.8 33 8.3 E 17 24 9 13 1025.3 1025.3 0.0
27/04:00pm 22.1 17.8 5.1 33 8.4 E 17 20 9 11 1025.2 1025.2 0.0
27/03:30pm 22.3 18.0 5.3 33 8.4 ESE 17 26 9 14 1025.1 1025.1 0.0
27/03:00pm 22.0 18.0 5.0 33 8.4 E 15 24 8 13 1025.1 1025.1 0.0
27/02:30pm 22.0 17.2 4.6 32 8.5 E 19 26 10 14 1025.1 1025.1 0.0
27/02:00pm 21.5 17.8 4.6 33 8.3 E 13 22 7 12 1025.3 1025.3 0.0
27/01:30pm 21.6 18.1 5.5 35 8.0 E 13 24 7 13 1025.8 1025.8 0.0
27/01:00pm 21.5 16.8 5.0 34 8.1 SSE 19 22 10 12 1026.0 1026.0 0.0
27/12:30pm 20.9 17.5 6.1 38 7.4 E 13 19 7 10 1026.5 1026.5 0.0
27/12:00pm 20.1 16.7 6.1 40 6.9 ESE 13 19 7 10 1026.9 1026.9 0.0
27/11:30am 20.4 18.1 7.4 43 6.6 E 9 20 5 11 1027.2 1027.2 0.0
27/11:00am 19.0 16.3 7.4 47 5.9 ESE 11 15 6 8 1027.6 1027.6 0.0
27/10:30am 18.1 15.7 7.2 49 5.4 E 9 15 5 8 1027.8 1027.8 0.0
27/10:00am 16.8 14.4 7.2 53 4.8 E 9 11 5 6 1027.9 1027.9 0.0
27/09:30am 15.3 13.2 6.6 56 4.2 SE 7 13 4 7 1028.0 1028.0 0.0
27/09:00am 13.6 11.3 5.5 58 3.8 SSE 7 11 4 6 1027.8 1027.8 0.0
27/08:30am 11.9 9.1 5.1 63 3.1 ESE 9 13 5 7 1027.6 1027.6 0.0
27/08:00am 9.7 8.2 5.1 73 2.1 SW 2 6 1 3 1027.3 1027.3 0.0
27/07:30am 6.0 4.8 4.8 92 0.5 CALM 0 0 0 0 1026.9 1026.9 0.0
27/07:00am 2.8 1.0 1.3 90 0.6 CALM 0 0 0 0 1026.6 1026.6 0.0
27/06:30am 3.7 1.0 2.4 91 0.5 ESE 6 9 3 5 1026.1 1026.1 0.0
27/06:00am 2.5 0.3 0.9 89 0.6 S 2 6 1 3 1026.1 1026.1 0.0
27/05:30am 2.6 -0.3 1.6 93 0.4 SSW 6 7 3 4 1025.8 1025.8 0.0
27/05:00am 2.3 0.4 0.5 88 0.7 CALM 0 0 0 0 1025.6 1025.6 0.0
27/04:30am 2.5 0.6 0.7 88 0.7 CALM 0 0 0 0 1025.4 1025.4 0.0
27/04:00am 2.8 0.9 0.5 85 0.9 CALM 0 0 0 0 1025.2 1025.2 0.0
27/03:30am 2.9 0.7 0.8 86 0.8 SW 2 6 1 3 1025.2 1025.2 0.0
27/03:00am 2.9 -0.1 0.8 86 0.8 SW 6 7 3 4 1025.3 1025.3 0.0
27/02:30am 2.9 0.6 0.3 83 1.0 WSW 2 7 1 4 1025.3 1025.3 0.0
27/02:00am 3.3 0.3 0.7 83 1.0 W 6 7 3 4 1025.4 1025.4 0.0
27/01:30am 3.4 1.5 0.6 82 1.1 CALM 0 0 0 0 1025.4 1025.4 0.0
27/01:00am 3.9 2.0 0.8 80 1.2 CALM 0 0 0 0 1025.5 1025.5 0.0
27/12:30am 4.5 1.6 1.4 80 1.2 WSW 6 6 3 3 1025.7 1025.7 0.0
27/12:00am 4.4 1.9 1.3 80 1.2 W 4 6 2 3 1025.8 1025.8 0.0
 
Date/Time
CST
Temp
°C
App
Temp
°C
Dew
Point
Rel
Hum
%
Delta-T
°C
Wind Press
QNH
hPa
Press
MSL
hPa
Rain
since 9 am
mm
Dir
 
Spd
km/h
Gust
km/h
Spd
kts
Gust
kts
26/11:30pm 4.8 3.0 1.5 79 1.3 CALM 0 0 0 0 1025.9 1025.9 0.0
26/11:00pm 4.8 1.9 1.3 78 1.4 W 6 7 3 4 1025.9 1025.9 0.0
26/10:30pm 5.7 4.0 1.6 75 1.6 CALM 0 0 0 0 1025.9 1025.9 0.0
26/10:00pm 7.0 5.4 2.5 73 1.9 CALM 0 0 0 0 1025.6 1025.6 0.0
26/09:30pm 7.1 5.5 2.2 71 2.0 CALM 0 0 0 0 1025.6 1025.6 0.0
26/09:00pm 7.9 5.1 2.0 66 2.4 W 6 6 3 3 1025.6 1025.6 0.0
26/08:30pm 8.4 5.4 2.2 65 2.6 W 7 7 4 4 1025.5 1025.5 0.0
26/08:00pm 8.8 5.9 2.6 65 2.6 W 7 9 4 5 1025.2 1025.2 0.0
26/07:30pm 10.0 7.4 3.3 63 2.9 W 6 7 3 4 1025.0 1025.0 0.0
26/07:00pm 11.0 9.6 3.3 59 3.4 CALM 0 0 0 0 1024.7 1024.7 0.0
26/06:30pm 12.3 10.9 3.3 54 4.0 CALM 0 0 0 0 1024.5 1024.5 0.0
26/06:00pm 15.4 12.7 3.9 46 5.3 SSW 7 9 4 5 1024.4 1024.4 0.0
26/05:30pm 18.0 15.3 3.5 38 6.7 S 7 7 4 4 1024.3 1024.3 0.0
26/05:00pm 18.8 15.7 3.4 36 7.2 SE 9 13 5 7 1024.1 1024.1 0.0
26/04:30pm 19.4 16.7 3.6 35 7.4 SE 7 11 4 6 1024.0 1024.0 0.0
26/04:00pm 19.4 16.3 3.6 35 7.5 E 9 17 5 9 1023.9 1023.9 0.0
26/03:30pm 19.5 16.8 2.8 33 7.7 SW 6 11 3 6 1024.0 1024.0 0.0
26/03:00pm 19.4 15.8 3.2 34 7.6 E 11 17 6 9 1024.0 1024.0 0.0
26/02:30pm 19.1 16.4 2.9 34 7.5 ESE 6 13 3 7 1024.3 1024.3 0.0
26/02:00pm 19.0 16.9 4.0 37 7.1 NW 4 13 2 7 1024.5 1024.5 0.0
26/01:30pm 18.3 14.9 3.8 38 6.8 ESE 11 15 6 8 1024.8 1024.8 0.0
26/01:00pm 18.5 16.4 5.7 43 6.3 ENE 6 11 3 6 1025.2 1025.2 0.0
26/12:30pm 17.2 14.5 5.8 47 5.5 SSE 9 13 5 7 1025.6 1025.6 0.0
26/12:00pm 16.9 14.9 7.0 52 4.9 SSE 7 17 4 9 1026.2 1026.2 0.0
26/11:30am 16.3 13.8 6.7 53 4.7 ESE 9 15 5 8 1026.7 1026.7 0.0
26/11:00am 15.6 13.2 7.1 57 4.2 SSE 9 13 5 7 1027.1 1027.1 0.0
26/10:30am 14.6 13.1 6.9 60 3.7 SSW 4 9 2 5 1027.6 1027.6 0.0
26/10:00am 13.5 11.7 7.3 66 3.0 ESE 6 11 3 6 1027.7 1027.7 0.0
26/09:30am 11.9 9.5 6.8 71 2.4 E 9 13 5 7 1027.9 1027.9 0.0
26/09:00am 10.5 8.0 6.5 76 1.9 ESE 9 15 5 8 1028.1 1028.1 0.0
26/08:30am 8.5 6.0 6.5 87 0.9 SSE 9 13 5 7 1028.2 1028.2 0.0
26/08:00am 7.3 5.3 7.3 100 0.0 S 7 11 4 6 1028.3 1028.3 0.0
26/07:30am 5.6 3.5 5.6 100 0.0 SW 6 7 3 4 1028.1 1028.1 0.0
26/07:00am 3.5 0.8 3.5 100 0.0 SW 7 9 4 5 1027.6 1027.6 0.0
26/06:30am 3.3 0.5 3.2 99 0.0 SSW 7 9 4 5 1027.3 1027.3 0.0
26/06:00am 2.6 -0.3 2.5 99 0.0 SSW 7 9 4 5 1027.0 1027.0 0.0
26/05:30am 4.0 1.5 4.0 100 0.0 S 6 7 3 4 1026.7 1026.7 0.0
26/05:00am 4.7 3.1 4.7 100 0.0 SSE 2 6 1 3 1026.4 1026.4 0.0
26/04:30am 6.2 3.6 6.2 100 0.0 SE 9 13 5 7 1026.5 1026.5 0.0
26/04:00am 6.4 3.9 6.4 100 0.0 S 9 13 5 7 1026.6 1026.6 0.0
26/03:30am 6.9 4.1 6.9 100 0.0 S 11 13 6 7 1026.6 1026.6 0.0
26/03:00am 7.3 5.0 7.3 100 0.0 S 9 13 5 7 1026.8 1026.8 0.0
26/02:30am 7.7 5.0 7.4 98 0.1 S 11 15 6 8 1027.0 1027.0 0.0
26/02:00am 7.7 4.6 7.1 96 0.3 S 13 20 7 11 1027.2 1027.2 0.0
26/01:30am 7.8 4.6 6.7 93 0.5 S 13 17 7 9 1027.3 1027.3 0.0
26/01:00am 8.0 4.7 6.3 89 0.8 SSW 13 17 7 9 1027.4 1027.4 0.0
26/12:30am 8.1 4.7 5.7 85 1.1 SSW 13 15 7 8 1027.5 1027.5 0.0
26/12:00am 8.6 4.7 5.4 80 1.4 S 15 20 8 11 1027.5 1027.5 0.0
 
Date/Time
CST
Temp
°C
App
Temp
°C
Dew
Point
Rel
Hum
%
Delta-T
°C
Wind Press
QNH
hPa
Press
MSL
hPa
Rain
since 9 am
mm
Dir
 
Spd
km/h
Gust
km/h
Spd
kts
Gust
kts
25/11:30pm 8.2 4.5 4.2 76 1.7 SSW 13 17 7 9 1027.6 1027.6 0.0
25/11:00pm 8.7 4.9 3.9 72 2.1 SSW 13 17 7 9 1027.7 1027.7 0.0
25/10:30pm 8.9 5.5 3.9 71 2.2 SSW 11 15 6 8 1028.0 1028.0 0.0
25/10:00pm 9.0 5.2 3.8 70 2.3 SSW 13 15 7 8 1027.9 1027.9 0.0
25/09:30pm 9.3 5.8 3.5 67 2.5 SSW 11 13 6 7 1028.0 1028.0 0.0
25/09:00pm 9.9 6.4 3.6 65 2.7 SSW 11 13 6 7 1028.1 1028.1 0.0
25/08:30pm 10.8 6.9 3.6 61 3.1 S 13 15 7 8 1028.2 1028.2 0.0
25/08:00pm 11.4 7.9 3.4 58 3.5 SSW 11 13 6 7 1027.9 1027.9 0.0
25/07:30pm 11.8 8.3 3.3 56 3.7 SW 11 13 6 7 1027.8 1027.8 0.0
25/07:00pm 12.3 8.7 3.0 53 4.1 SW 11 13 6 7 1027.4 1027.4 0.0
25/06:30pm 13.1 9.5 3.2 51 4.4 SW 11 13 6 7 1027.4 1027.4 0.0
25/06:00pm 14.2 10.6 3.1 47 4.9 SSW 11 15 6 8 1027.4 1027.4 0.0
25/05:30pm 15.8 11.8 2.9 42 5.8 SSW 13 20 7 11 1027.1 1027.1 0.0
25/05:00pm 16.9 11.1 2.5 38 6.5 S 22 30 12 16 1026.8 1026.8 0.0
25/04:30pm 17.5 12.8 3.4 39 6.5 SSW 17 24 9 13 1026.7 1026.7 0.0
25/04:00pm 17.8 13.2 3.7 39 6.6 SSW 17 26 9 14 1026.6 1026.6 0.0
25/03:30pm 17.8 13.1 2.9 37 6.8 SSW 17 24 9 13 1026.6 1026.6 0.0
25/03:00pm 17.9 13.7 3.8 39 6.6 SW 15 24 8 13 1026.7 1026.7 0.0
25/02:30pm 17.4 12.3 3.3 39 6.5 SSW 19 32 10 17 1027.1 1027.1 0.0
25/02:00pm 17.9 14.3 4.8 42 6.3 SSW 13 20 7 11 1027.4 1027.4 0.0
25/01:30pm 17.0 12.5 4.3 43 5.9 SSW 17 26 9 14 1028.0 1028.0 0.0
25/01:00pm 16.2 12.1 4.6 46 5.5 SSW 15 24 8 13 1028.5 1028.5 0.0

Other Formats:

Comma delimited format used in spreadsheet applications
http://www.bom.gov.au/fwo/IDS60801/IDS60801.95687.axf

JavaScript Object Notation format (JSON) in row-major order
http://www.bom.gov.au/fwo/IDS60801/IDS60801.95687.json